Time;durP1;ratioP1;P1;durP2;ratioP2;P2;SDS_P1;SDS_P2;PMS_P1;PMS_P2;Temp;Humidity;BMP_temperature;BMP_pressure;BME280_temperature;BME280_humidity;BME280_pressure;Samples;Min_cycle;Max_cycle;Signal;HPM_P1;HPM_P2
2020/12/22 07:00:52;;;;;;;35.48;19.48;;;;;;;1.31;81.28;102869.36;1773157;79;22756;-83
2020/12/22 07:03:22;;;;;;;39.40;18.92;;;;;;;1.30;80.71;102876.59;1739308;81;21015;-84
2020/12/22 07:05:51;;;;;;;50.28;19.05;;;;;;;1.31;80.39;102871.91;1735754;82;22065;-82
2020/12/22 07:08:21;;;;;;;36.93;18.17;;;;;;;1.34;80.10;102868.93;1735502;81;21050;-83
2020/12/22 07:10:54;;;;;;;33.23;17.92;;;;;;;1.35;79.78;102869.80;1735597;81;21085;-83
2020/12/22 07:13:23;;;;;;;32.67;17.87;;;;;;;1.33;79.41;102867.23;1735765;81;20933;-82
2020/12/22 07:15:53;;;;;;;35.88;17.42;;;;;;;1.35;79.44;102857.00;1701392;82;21466;-83
2020/12/22 07:18:30;;;;;;;39.95;18.23;;;;;;;1.36;78.87;102857.44;1738977;81;21273;-83
2020/12/22 07:20:59;;;;;;;33.90;18.23;;;;;;;1.37;78.88;102858.72;1735667;81;21196;-83
2020/12/22 07:23:27;;;;;;;38.90;18.05;;;;;;;1.43;78.84;102865.19;1735720;82;21024;-84
2020/12/22 07:25:55;;;;;;;40.20;18.07;;;;;;;1.50;78.77;102857.13;1735674;82;21205;-83
2020/12/22 07:28:23;;;;;;;33.70;17.23;;;;;;;1.55;78.33;102859.28;1739232;81;21601;-83
2020/12/22 07:30:51;;;;;;;47.30;18.92;;;;;;;1.59;77.71;102862.30;1732751;81;22293;-83
2020/12/22 07:33:21;;;;;;;51.70;18.70;;;;;;;1.65;77.73;102858.91;1671718;84;20986;-83
2020/12/22 07:35:49;;;;;;;33.48;17.40;;;;;;;1.74;77.64;102858.53;1687962;84;21181;-84
2020/12/22 07:38:17;;;;;;;36.65;18.10;;;;;;;1.81;76.92;102859.00;1667615;84;21164;-83
2020/12/22 07:40:45;;;;;;;39.63;18.37;;;;;;;1.87;76.18;102853.05;1671532;84;21560;-82
2020/12/22 07:43:13;;;;;;;42.03;19.70;;;;;;;1.86;76.02;102853.47;1673334;84;21262;-85
2020/12/22 07:45:51;;;;;;;44.58;18.57;;;;;;;1.90;75.57;102848.80;1677428;83;21165;-84
2020/12/22 07:48:19;;;;;;;34.00;18.95;;;;;;;1.98;75.70;102849.68;1692030;84;21204;-83
2020/12/22 07:50:53;;;;;;;30.97;17.60;;;;;;;2.07;75.69;102852.27;1729500;81;21197;-82
2020/12/22 07:53:21;;;;;;;29.42;16.60;;;;;;;2.16;74.95;102849.33;1735568;81;21123;-83
2020/12/22 07:55:49;;;;;;;36.23;18.12;;;;;;;2.16;73.96;102845.06;1725050;81;21321;-85
2020/12/22 07:58:18;;;;;;;27.50;15.70;;;;;;;2.16;73.67;102853.17;1706350;82;21170;-84
2020/12/22 08:00:50;;;;;;;40.40;17.52;;;;;;;2.13;73.35;102845.92;1708827;82;21133;-82
2020/12/22 08:03:19;;;;;;;28.70;16.37;;;;;;;2.08;73.02;102846.73;1722773;81;21129;-83
2020/12/22 08:06:03;;;;;;;31.62;14.83;;;;;;;2.05;72.96;102854.40;1729201;82;21102;-81
2020/12/22 08:08:34;;;;;;;29.72;15.68;;;;;;;2.02;73.15;102853.97;1706572;81;21196;-82
2020/12/22 08:11:02;;;;;;;26.02;15.08;;;;;;;2.07;73.15;102861.69;1708470;82;21081;-82
2020/12/22 08:13:32;;;;;;;39.63;16.70;;;;;;;2.10;73.00;102851.45;1685294;84;21161;-81
2020/12/22 08:16:00;;;;;;;38.83;17.00;;;;;;;2.15;73.25;102852.31;1705912;83;21169;-81
2020/12/22 08:18:32;;;;;;;30.80;15.85;;;;;;;2.23;73.16;102851.93;1705615;83;21177;-80
2020/12/22 08:21:01;;;;;;;31.82;15.78;;;;;;;2.30;72.75;102848.51;1707548;82;21200;-82
2020/12/22 08:23:29;;;;;;;30.12;16.70;;;;;;;2.41;72.25;102849.41;1721128;82;21237;-82
2020/12/22 08:25:56;;;;;;;30.17;15.95;;;;;;;2.48;71.73;102849.00;1705523;83;21030;-81
2020/12/22 08:28:26;;;;;;;32.15;17.07;;;;;;;2.47;71.05;102843.44;1690197;82;21247;-84
2020/12/22 08:31:08;;;;;;;32.65;15.95;;;;;;;2.41;71.37;102841.72;1708366;82;21213;-82
2020/12/22 08:33:39;;;;;;;42.80;16.87;;;;;;;2.44;71.70;102839.16;1710071;82;21535;-82
2020/12/22 08:36:11;;;;;;;30.02;16.75;;;;;;;2.47;71.26;102835.33;1713429;82;21003;-82
2020/12/22 08:38:41;;;;;;;27.22;16.10;;;;;;;2.44;70.95;102831.90;1719717;82;21201;-81
2020/12/22 08:41:18;;;;;;;27.45;16.20;;;;;;;2.47;70.95;102830.20;1668110;85;21141;-84
2020/12/22 08:43:51;;;;;;;46.13;16.02;;;;;;;2.49;70.99;102823.36;1668980;85;21564;-82
2020/12/22 08:46:20;;;;;;;29.35;16.57;;;;;;;2.51;70.58;102821.67;1670784;85;21695;-80
2020/12/22 08:48:48;;;;;;;29.20;15.55;;;;;;;2.55;70.72;102822.08;1714337;83;21220;-83
2020/12/22 08:51:25;;;;;;;40.65;16.25;;;;;;;2.61;70.74;102822.13;1729908;83;21826;-82
2020/12/22 08:53:56;;;;;;;36.53;18.12;;;;;;;2.68;70.98;102817.00;1729051;82;21200;-85
2020/12/22 08:56:24;;;;;;;39.38;17.15;;;;;;;2.77;70.90;102811.45;1718559;82;21620;-82
2020/12/22 08:59:11;;;;;;;34.67;15.03;;;;;;;2.85;70.07;102805.02;1720082;82;21269;-81
2020/12/22 09:01:45;;;;;;;34.35;16.25;;;;;;;2.85;69.18;102804.59;1715063;83;21077;-81
2020/12/22 09:04:14;;;;;;;38.20;16.65;;;;;;;2.86;69.52;102802.47;1669410;85;21239;-80
2020/12/22 09:06:45;;;;;;;31.70;16.00;;;;;;;2.93;69.78;102794.35;1674295;84;21177;-80
2020/12/22 09:09:17;;;;;;;27.48;14.68;;;;;;;3.00;69.57;102794.33;1671261;85;21161;-82
2020/12/22 09:11:46;;;;;;;28.35;14.50;;;;;;;2.98;68.93;102797.75;1724895;82;22062;-80
2020/12/22 09:14:18;;;;;;;33.50;15.20;;;;;;;2.96;69.20;102796.91;1668599;85;21767;-80
2020/12/22 09:16:57;;;;;;;25.95;14.58;;;;;;;2.96;69.42;102795.20;1667109;86;21588;-81
2020/12/22 09:19:29;;;;;;;31.10;15.40;;;;;;;3.00;69.33;102796.89;1673273;84;21173;-81
2020/12/22 09:21:59;;;;;;;44.57;16.50;;;;;;;3.01;69.11;102792.63;1678048;83;21145;-82
2020/12/22 09:24:27;;;;;;;35.17;16.05;;;;;;;2.99;68.74;102786.65;1666803;86;21213;-80
2020/12/22 09:27:10;;;;;;;33.08;16.80;;;;;;;2.99;69.08;102788.80;1682967;84;21161;-79
2020/12/22 09:29:41;;;;;;;43.63;17.92;;;;;;;2.98;69.02;102779.37;1687153;83;21179;-82
2020/12/22 09:32:11;;;;;;;37.42;17.23;;;;;;;2.99;69.03;102781.52;1676794;83;21648;-82
2020/12/22 09:34:39;;;;;;;34.25;17.77;;;;;;;2.96;69.43;102775.97;1667518;86;21090;-82
2020/12/22 09:37:08;;;;;;;38.13;17.92;;;;;;;2.95;69.50;102766.56;1666987;84;21296;-82
2020/12/22 09:39:37;;;;;;;33.00;16.67;;;;;;;3.03;70.06;102762.27;1692489;84;21128;-83
2020/12/22 09:42:05;;;;;;;26.37;17.05;;;;;;;3.10;69.80;102756.69;1695046;84;21125;-82
2020/12/22 09:44:42;;;;;;;34.85;16.95;;;;;;;3.10;69.60;102747.72;1686011;83;21057;-83
2020/12/22 09:47:10;;;;;;;30.00;16.32;;;;;;;3.07;69.24;102746.44;1670458;84;21089;-82
2020/12/22 09:49:40;;;;;;;33.20;17.25;;;;;;;3.05;70.18;102747.74;1667096;84;21144;-80
2020/12/22 09:52:10;;;;;;;29.55;17.00;;;;;;;3.09;70.16;102751.16;1688788;84;21081;-80
2020/12/22 09:54:38;;;;;;;32.20;16.23;;;;;;;3.10;70.22;102753.70;1690468;84;21042;-80
2020/12/22 09:57:07;;;;;;;26.70;16.97;;;;;;;3.12;69.83;102748.59;1668125;84;21306;-80
2020/12/22 09:59:36;;;;;;;26.65;16.62;;;;;;;3.05;70.27;102743.04;1681788;83;21601;-81
2020/12/22 10:02:04;;;;;;;28.02;17.05;;;;;;;2.93;70.62;102746.91;1678942;84;21212;-81
2020/12/22 10:04:34;;;;;;;31.90;18.57;;;;;;;2.85;70.71;102743.06;1662870;83;21181;-80
2020/12/22 10:07:04;;;;;;;33.23;19.67;;;;;;;2.82;71.32;102739.64;1676928;84;21153;-79
2020/12/22 10:09:32;;;;;;;31.52;16.93;;;;;;;2.88;71.54;102744.34;1711327;81;21495;-79
2020/12/22 10:12:00;;;;;;;34.70;18.17;;;;;;;2.93;71.41;102747.77;1730255;81;21189;-80
2020/12/22 10:14:28;;;;;;;26.50;16.95;;;;;;;2.95;71.35;102745.19;1706398;82;21810;-81
2020/12/22 10:16:56;;;;;;;30.68;17.98;;;;;;;2.97;71.49;102733.20;1716830;82;21557;-80
2020/12/22 10:19:24;;;;;;;34.98;18.85;;;;;;;2.90;71.40;102732.81;1724713;82;21253;-79
2020/12/22 10:21:53;;;;;;;32.93;18.92;;;;;;;2.91;71.79;102728.09;1734419;82;21133;-79
2020/12/22 10:24:22;;;;;;;37.40;19.62;;;;;;;2.93;71.90;102731.52;1715183;83;21653;-82
2020/12/22 10:26:50;;;;;;;38.92;19.42;;;;;;;2.90;71.94;102734.09;1723833;82;21220;-79
2020/12/22 10:29:18;;;;;;;31.27;18.15;;;;;;;2.89;72.20;102737.08;1699827;83;21039;-80
2020/12/22 10:31:47;;;;;;;38.05;18.10;;;;;;;2.92;72.86;102733.23;1705520;82;21593;-79
2020/12/22 10:34:15;;;;;;;25.92;15.70;;;;;;;2.92;72.56;102731.09;1698151;83;21101;-81
2020/12/22 10:36:46;;;;;;;33.38;18.07;;;;;;;2.92;73.08;102728.10;1705115;84;21676;-80
2020/12/22 10:39:15;;;;;;;64.17;19.05;;;;;;;3.01;73.09;102720.81;1698390;83;21201;-79
2020/12/22 10:41:43;;;;;;;47.55;18.00;;;;;;;3.08;72.73;102719.95;1732254;81;21680;-80
2020/12/22 10:44:10;;;;;;;39.00;18.20;;;;;;;3.08;72.25;102707.98;1702740;82;21594;-79
2020/12/22 10:46:38;;;;;;;35.98;17.77;;;;;;;3.09;72.02;102709.70;1711937;82;21216;-80
2020/12/22 10:49:06;;;;;;;56.02;20.30;;;;;;;3.08;71.99;102702.84;1718317;81;21152;-79
2020/12/22 10:51:34;;;;;;;27.50;17.80;;;;;;;3.09;72.13;102698.58;1707444;83;21636;-78
2020/12/22 10:54:02;;;;;;;35.00;18.95;;;;;;;3.05;72.44;102697.73;1713273;82;21015;-80
2020/12/22 10:56:30;;;;;;;36.45;19.10;;;;;;;3.05;72.87;102697.73;1703792;84;21093;-80
2020/12/22 10:59:00;;;;;;;53.48;20.50;;;;;;;3.11;72.79;102690.02;1704995;84;21229;-80
2020/12/22 11:01:28;;;;;;;42.35;19.27;;;;;;;3.25;72.70;102687.84;1731947;81;21136;-81
2020/12/22 11:03:56;;;;;;;32.60;18.60;;;;;;;3.36;72.29;102684.36;1725694;82;21193;-81
2020/12/22 11:08:58;;;;;;;28.30;16.93;;;;;;;3.50;71.77;102685.16;1670211;85;21645;-78
2020/12/22 11:11:26;;;;;;;29.15;16.62;;;;;;;3.50;71.42;102682.59;1732756;81;21205;-78
2020/12/22 11:13:55;;;;;;;28.62;17.35;;;;;;;3.47;71.68;102681.33;1718560;82;21172;-78
2020/12/22 11:16:27;;;;;;;30.30;17.85;;;;;;;3.53;72.06;102681.30;1724492;82;21254;-79
2020/12/22 11:18:56;;;;;;;29.32;17.32;;;;;;;3.60;71.98;102682.98;1721459;82;21149;-79
2020/12/22 11:21:25;;;;;;;34.23;18.40;;;;;;;3.64;71.64;102675.66;1721971;82;21175;-79
2020/12/22 11:23:53;;;;;;;33.55;17.25;;;;;;;3.67;71.41;102673.50;1714805;82;21589;-79
2020/12/22 11:26:25;;;;;;;40.85;18.55;;;;;;;3.78;71.29;102673.45;1721291;81;21077;-80
2020/12/22 11:28:53;;;;;;;32.78;18.02;;;;;;;3.85;71.10;102668.28;1730060;82;21173;-79
2020/12/22 11:31:21;;;;;;;39.08;17.10;;;;;;;3.89;70.67;102663.55;1735090;81;21089;-79
2020/12/22 11:33:49;;;;;;;27.45;17.62;;;;;;;3.91;70.55;102668.23;1735140;81;21200;-80
2020/12/22 11:36:19;;;;;;;26.30;16.48;;;;;;;3.88;70.39;102667.40;1732707;82;21977;-80
2020/12/22 11:38:47;;;;;;;30.32;18.20;;;;;;;3.87;70.44;102665.26;1732205;81;21195;-79
2020/12/22 11:41:22;;;;;;;30.80;18.90;;;;;;;3.84;70.70;102658.86;1719380;82;21383;-79
2020/12/22 11:43:50;;;;;;;33.70;19.75;;;;;;;3.91;70.89;102651.55;1734710;82;21728;-78
2020/12/22 11:46:18;;;;;;;32.28;19.52;;;;;;;3.97;70.46;102650.22;1708758;82;21181;-79
2020/12/22 11:48:46;;;;;;;25.90;16.23;;;;;;;4.03;70.48;102649.30;1705750;83;21121;-79
2020/12/22 11:51:16;;;;;;;33.58;17.35;;;;;;;4.08;70.16;102640.73;1702903;82;21227;-80
2020/12/22 11:53:45;;;;;;;26.68;18.05;;;;;;;4.17;70.17;102638.51;1705611;83;21196;-80
2020/12/22 11:56:14;;;;;;;33.28;17.32;;;;;;;4.30;69.59;102636.69;1726764;82;21271;-80
2020/12/22 11:58:42;;;;;;;32.85;17.98;;;;;;;4.32;69.04;102636.23;1717544;82;21523;-80
2020/12/22 12:01:10;;;;;;;35.05;17.02;;;;;;;4.35;68.77;102634.48;1726503;82;21234;-79
2020/12/22 12:03:38;;;;;;;37.03;17.37;;;;;;;4.36;68.49;102641.77;1708454;82;21561;-79
2020/12/22 12:06:09;;;;;;;32.05;17.02;;;;;;;4.44;68.69;102635.68;1708415;82;22495;-80
2020/12/22 12:08:38;;;;;;;26.00;15.93;;;;;;;4.54;68.59;102632.16;1721793;82;21047;-83
2020/12/22 12:11:10;;;;;;;26.37;16.35;;;;;;;4.57;68.37;102633.84;1663729;84;20968;-80
2020/12/22 12:13:42;;;;;;;39.40;17.73;;;;;;;4.62;68.11;102632.10;1698065;83;20928;-79
2020/12/22 12:16:20;;;;;;;25.12;16.10;;;;;;;4.65;67.81;102630.78;1697790;84;21157;-81
2020/12/22 12:18:51;;;;;;;25.35;15.95;;;;;;;4.62;67.80;102629.10;1697842;83;21253;-80
2020/12/22 12:21:19;;;;;;;27.30;15.70;;;;;;;4.63;67.70;102632.50;1697702;84;21078;-80
2020/12/22 12:23:49;;;;;;;24.70;16.10;;;;;;;4.61;67.61;102621.38;1645080;85;21628;-79
2020/12/22 12:26:18;;;;;;;22.17;14.68;;;;;;;4.63;67.84;102630.78;1638160;86;21144;-80
2020/12/22 12:28:46;;;;;;;25.35;14.83;;;;;;;4.61;67.74;102621.38;1637485;86;21178;-81
2020/12/22 12:31:16;;;;;;;32.73;15.28;;;;;;;4.53;67.42;102625.77;1645102;86;22137;-80
2020/12/22 12:33:45;;;;;;;30.37;17.00;;;;;;;4.47;67.34;102622.80;1646627;85;21628;-79
2020/12/22 12:36:14;;;;;;;23.65;15.00;;;;;;;4.42;67.39;102628.86;1644755;86;21242;-80
2020/12/22 12:38:42;;;;;;;23.15;15.78;;;;;;;4.28;67.72;102623.41;1646436;85;21240;-80
2020/12/22 12:41:14;;;;;;;26.30;17.12;;;;;;;4.19;68.26;102619.64;1661739;85;21086;-81
2020/12/22 12:43:42;;;;;;;28.38;16.85;;;;;;;4.09;68.84;102627.42;1649459;84;22183;-81
2020/12/22 12:46:10;;;;;;;24.72;15.78;;;;;;;3.95;69.37;102626.70;1660431;85;21114;-81
2020/12/22 12:48:39;;;;;;;25.10;16.27;;;;;;;3.86;69.92;102622.45;1669698;85;21154;-81
2020/12/22 12:51:09;;;;;;;41.65;21.25;;;;;;;3.90;70.40;102623.29;1661088;85;21130;-82
2020/12/22 12:53:40;;;;;;;42.00;22.05;;;;;;;3.91;70.41;102621.16;1656012;85;21606;-81
2020/12/22 12:56:16;;;;;;;30.30;17.30;;;;;;;3.88;70.49;102616.03;1658265;85;21162;-81
2020/12/22 12:58:45;;;;;;;27.73;17.17;;;;;;;3.81;70.79;102622.08;1669507;85;20996;-81
2020/12/22 13:01:15;;;;;;;35.00;17.87;;;;;;;3.76;71.14;102614.84;1649492;85;21166;-81
2020/12/22 13:03:43;;;;;;;31.50;17.70;;;;;;;3.81;71.21;102617.80;1671970;85;21070;-82
2020/12/22 13:06:12;;;;;;;30.08;17.85;;;;;;;3.87;71.48;102615.61;1662102;85;21514;-81
2020/12/22 13:08:51;;;;;;;28.73;17.75;;;;;;;3.90;71.31;102615.58;1646090;85;22104;-80
2020/12/22 13:11:20;;;;;;;25.60;16.77;;;;;;;3.83;71.11;102613.95;1624892;87;21488;-80
2020/12/22 13:14:43;;;;;;;25.92;16.97;;;;;;;3.69;71.49;102609.75;1661865;85;21657;-81
2020/12/22 13:20:53;;;;;;;48.08;17.73;;;;;;;3.36;72.49;102607.80;1647683;86;21652;-81
2020/12/22 13:24:02;;;;;;;37.60;18.87;;;;;;;3.30;73.17;102605.27;1652367;86;21212;-80
2020/12/22 13:26:44;;;;;;;35.48;17.42;;;;;;;3.30;73.49;102605.27;1652236;86;21592;-80
2020/12/22 13:31:55;;;;;;;33.20;17.55;;;;;;;3.22;73.77;102609.17;1951123;73;22293;-78
2020/12/22 13:34:23;;;;;;;28.20;17.02;;;;;;;3.18;74.13;102610.04;1892778;74;21593;-81
2020/12/22 13:36:53;;;;;;;26.37;16.27;;;;;;;3.14;74.09;102607.05;1884483;75;22061;-81
2020/12/22 13:39:23;;;;;;;31.70;16.15;;;;;;;3.09;74.20;102603.67;1886776;74;21031;-81
2020/12/22 13:41:51;;;;;;;51.10;20.80;;;;;;;3.07;74.73;102605.38;1900218;73;20964;-82
2020/12/22 13:44:20;;;;;;;35.43;18.02;;;;;;;3.08;74.86;102598.97;1918346;74;21554;-81
2020/12/22 13:46:48;;;;;;;30.40;18.12;;;;;;;3.05;74.77;102595.56;1920480;74;20924;-81
2020/12/22 13:49:17;;;;;;;30.02;16.85;;;;;;;2.96;74.81;102590.47;1886698;74;21173;-82
2020/12/22 13:51:45;;;;;;;31.62;17.32;;;;;;;2.88;75.16;102590.48;1884209;75;21049;-81
2020/12/22 13:54:13;;;;;;;31.10;18.35;;;;;;;2.83;75.51;102583.25;1905281;74;21819;-83
2020/12/22 13:56:43;;;;;;;29.25;17.65;;;;;;;2.81;75.80;102585.41;1914822;74;21197;-80
2020/12/22 13:59:12;;;;;;;35.83;18.52;;;;;;;2.75;75.92;102583.70;1919554;74;21045;-79
2020/12/22 14:01:40;;;;;;;28.30;16.85;;;;;;;2.70;76.19;102580.73;1918374;74;21358;-80
2020/12/22 14:04:09;;;;;;;30.37;17.95;;;;;;;2.68;76.47;102579.89;1919258;73;21112;-80
2020/12/22 14:06:36;;;;;;;36.33;20.00;;;;;;;2.65;76.52;102584.58;1919144;73;21087;-80
2020/12/22 14:09:04;;;;;;;31.48;19.62;;;;;;;2.58;76.70;102576.08;1919617;73;20965;-79
2020/12/22 14:11:32;;;;;;;34.75;19.85;;;;;;;2.54;76.82;102581.20;1919043;73;21256;-80
2020/12/22 14:14:00;;;;;;;28.67;17.30;;;;;;;2.48;76.91;102576.95;1919013;74;21621;-80
2020/12/22 14:16:30;;;;;;;30.77;18.57;;;;;;;2.46;77.29;102580.34;1919961;74;21575;-79
2020/12/22 14:18:58;;;;;;;38.08;19.62;;;;;;;2.42;77.55;102587.22;1919746;74;21614;-80
2020/12/22 14:21:26;;;;;;;37.95;21.57;;;;;;;2.39;77.66;102585.95;1919617;74;21063;-80
2020/12/22 14:23:54;;;;;;;34.98;20.05;;;;;;;2.32;77.95;102576.98;1919717;74;21147;-81
2020/12/22 14:26:25;;;;;;;30.32;17.75;;;;;;;2.28;78.38;102582.53;1920284;74;21610;-80
2020/12/22 14:28:54;;;;;;;34.88;19.20;;;;;;;2.28;78.63;102581.67;1920339;74;21020;-81
2020/12/22 14:31:22;;;;;;;37.60;19.45;;;;;;;2.27;78.70;102583.80;1924553;74;21058;-80
2020/12/22 14:33:50;;;;;;;34.58;19.12;;;;;;;2.21;78.85;102579.55;1927327;74;21146;-80
2020/12/22 14:36:19;;;;;;;36.28;19.92;;;;;;;2.14;79.07;102581.25;1927384;74;20901;-80
2020/12/22 14:38:48;;;;;;;37.88;20.97;;;;;;;2.08;79.35;102579.98;1927171;74;21609;-80
2020/12/22 14:41:15;;;;;;;41.77;20.68;;;;;;;2.06;79.50;102582.13;1927022;74;21047;-80
2020/12/22 14:43:45;;;;;;;38.23;21.00;;;;;;;2.04;79.64;102577.44;1926388;74;20959;-80
2020/12/22 14:46:14;;;;;;;46.00;22.62;;;;;;;2.03;80.00;102573.16;1926699;74;21610;-81
2020/12/22 14:48:43;;;;;;;69.82;26.87;;;;;;;2.01;80.36;102572.32;1926409;74;21153;-82
2020/12/22 14:51:12;;;;;;;50.43;29.02;;;;;;;1.99;80.57;102571.03;1926516;74;21228;-80
2020/12/22 14:53:40;;;;;;;58.30;31.73;;;;;;;1.94;80.80;102571.47;1926515;74;20908;-81
2020/12/22 14:56:09;;;;;;;50.28;28.40;;;;;;;1.92;81.00;102574.44;1926592;73;21098;-81
2020/12/22 14:58:38;;;;;;;51.98;28.65;;;;;;;1.90;81.24;102581.27;1926524;74;21024;-80
2020/12/22 15:01:05;;;;;;;52.38;26.65;;;;;;;1.90;81.59;102584.25;1926613;74;21059;-80
2020/12/22 15:03:36;;;;;;;45.45;25.57;;;;;;;1.88;81.79;102582.95;1926538;74;21405;-80
2020/12/22 15:06:05;;;;;;;45.20;25.55;;;;;;;1.89;81.99;102589.80;1926371;74;21067;-80
2020/12/22 15:08:33;;;;;;;47.53;26.87;;;;;;;1.86;81.97;102587.23;1926476;74;21118;-80
2020/12/22 15:13:48;;;;;;;45.58;26.50;;;;;;;1.88;82.37;102584.23;1967000;72;22671;-82
2020/12/22 15:16:16;;;;;;;53.35;27.20;;;;;;;1.84;82.36;102590.66;1935416;74;20983;-82
2020/12/22 15:18:45;;;;;;;44.67;24.00;;;;;;;1.85;82.45;102585.97;1935405;74;21176;-82
2020/12/22 15:21:18;;;;;;;43.00;24.43;;;;;;;1.86;82.32;102588.52;1935335;74;21007;-82
2020/12/22 15:23:46;;;;;;;;;;;;;;;1.87;82.32;102586.81;1938267;74;21530;-82
2020/12/22 15:26:14;;;;;;;44.05;23.38;;;;;;;1.90;82.55;102588.95;1935091;73;20260;-81
2020/12/22 15:28:42;;;;;;;42.85;23.10;;;;;;;1.94;82.51;102587.25;1935547;74;21462;-81
2020/12/22 15:31:12;;;;;;;37.00;21.85;;;;;;;2.00;82.43;102583.41;1935418;74;21117;-81
2020/12/22 15:33:40;;;;;;;34.50;20.45;;;;;;;2.04;82.14;102579.55;1935454;74;20877;-82
2020/12/22 15:36:11;;;;;;;39.55;21.77;;;;;;;2.10;81.90;102581.27;1935322;74;21050;-81
2020/12/22 15:38:39;;;;;;;40.08;22.32;;;;;;;2.12;81.59;102585.53;1935726;74;21439;-81
2020/12/22 15:41:09;;;;;;;39.55;21.80;;;;;;;2.08;81.30;102581.26;1920603;74;21083;-81
2020/12/22 15:43:38;;;;;;;40.30;21.20;;;;;;;2.03;81.28;102584.27;1898846;75;21124;-81
2020/12/22 15:46:10;;;;;;;42.40;22.60;;;;;;;2.02;81.37;102588.95;1898807;74;20925;-82
2020/12/22 15:48:38;;;;;;;37.23;21.65;;;;;;;2.01;81.38;102586.41;1901711;75;21516;-81
2020/12/22 15:51:07;;;;;;;39.98;21.68;;;;;;;2.02;81.58;102582.55;1914386;75;20953;-82
2020/12/22 15:53:35;;;;;;;37.20;21.15;;;;;;;2.08;81.61;102586.80;1914192;74;21100;-82
2020/12/22 15:56:04;;;;;;;33.42;20.00;;;;;;;2.11;81.34;102579.12;1913477;75;21170;-82
2020/12/22 16:01:20;;;;;;;46.90;23.85;;;;;;;2.05;81.08;102576.56;1953787;73;22675;-82
2020/12/22 16:03:48;;;;;;;42.00;23.25;;;;;;;1.99;81.24;102577.43;1920816;74;20980;-82
2020/12/22 16:06:16;;;;;;;36.73;21.20;;;;;;;1.95;81.21;102574.44;1920715;74;21175;-81
2020/12/22 16:08:44;;;;;;;38.95;20.70;;;;;;;1.91;81.26;102575.73;1920386;74;21475;-82
2020/12/22 16:11:22;;;;;;;38.92;21.45;;;;;;;1.92;81.67;102575.72;1920453;74;21604;-81
2020/12/22 16:13:50;;;;;;;43.05;24.18;;;;;;;1.97;81.76;102568.05;1920612;74;21352;-82
2020/12/22 16:16:22;;;;;;;34.98;21.15;;;;;;;1.94;81.67;102564.21;1920427;74;20996;-82
2020/12/22 16:18:50;;;;;;;35.58;21.02;;;;;;;1.99;81.95;102560.78;1920605;74;21163;-81
2020/12/22 16:21:18;;;;;;;33.53;19.37;;;;;;;2.02;81.88;102559.92;1920419;74;21617;-81
2020/12/22 16:23:46;;;;;;;37.33;22.07;;;;;;;2.03;81.46;102559.08;1920394;74;21447;-82
2020/12/22 16:26:17;;;;;;;34.25;19.50;;;;;;;1.96;81.29;102551.83;1920380;74;21051;-82
2020/12/22 16:28:46;;;;;;;37.15;20.37;;;;;;;1.93;81.36;102551.83;1920527;74;20890;-81
2020/12/22 16:31:13;;;;;;;34.13;19.77;;;;;;;1.87;81.24;102544.58;1920531;74;21073;-82
2020/12/22 16:33:44;;;;;;;35.75;18.98;;;;;;;1.82;81.57;102536.89;1920401;74;21463;-81
2020/12/22 16:36:12;;;;;;;32.73;19.12;;;;;;;1.81;81.73;102539.05;1920268;74;21035;-82
2020/12/22 16:38:40;;;;;;;33.83;18.67;;;;;;;1.78;81.69;102539.05;1920337;74;20976;-81
2020/12/22 16:41:08;;;;;;;31.68;19.12;;;;;;;1.75;81.77;102539.47;1920201;74;20976;-81
2020/12/22 16:43:36;;;;;;;32.75;19.25;;;;;;;1.71;82.03;102537.33;1858376;74;21130;-82
2020/12/22 16:46:04;;;;;;;29.00;19.05;;;;;;;1.66;82.10;102541.58;1920244;74;21042;-81
2020/12/22 16:48:32;;;;;;;29.55;18.67;;;;;;;1.60;82.04;102546.69;1920493;74;21534;-81
2020/12/22 16:51:00;;;;;;;34.15;20.90;;;;;;;1.56;82.25;102547.56;1920283;74;21007;-82
2020/12/22 16:53:28;;;;;;;34.18;19.62;;;;;;;1.52;82.42;102545.42;1920566;74;21146;-81
2020/12/22 16:55:56;;;;;;;32.67;20.05;;;;;;;1.49;82.55;102549.26;1920538;73;21343;-83
2020/12/22 16:58:24;;;;;;;32.65;18.87;;;;;;;1.47;82.62;102554.78;1920522;74;21532;-82
2020/12/22 17:00:52;;;;;;;33.70;20.48;;;;;;;1.44;82.60;102547.52;1920249;74;20957;-81
2020/12/22 17:03:20;;;;;;;32.42;20.15;;;;;;;1.45;82.87;102553.94;1920626;74;21518;-82
2020/12/22 17:05:48;;;;;;;32.95;19.75;;;;;;;1.47;83.00;102549.66;1920531;74;21581;-82
2020/12/22 17:08:15;;;;;;;33.50;20.60;;;;;;;1.46;82.83;102545.84;1887698;74;21558;-82
2020/12/22 17:10:43;;;;;;;32.28;20.35;;;;;;;1.49;83.06;102542.00;1920341;74;20917;-82
2020/12/22 17:13:12;;;;;;;35.70;19.85;;;;;;;1.53;83.14;102535.59;1919813;74;20944;-82
2020/12/22 17:15:40;;;;;;;31.55;20.30;;;;;;;1.56;83.00;102536.88;1919985;74;21554;-81
2020/12/22 17:18:10;;;;;;;38.15;22.20;;;;;;;1.60;82.98;102540.30;1919782;74;20897;-81
2020/12/22 17:20:38;;;;;;;37.00;21.12;;;;;;;1.64;83.03;102533.05;1919682;74;22142;-80
2020/12/22 17:23:06;;;;;;;39.10;22.22;;;;;;;1.70;82.98;102529.22;1919718;74;21059;-81
2020/12/22 17:25:36;;;;;;;32.40;20.85;;;;;;;1.67;82.52;102534.75;1919881;74;21082;-81
2020/12/22 17:28:04;;;;;;;33.88;20.92;;;;;;;1.65;82.67;102537.33;1919726;74;21000;-81
2020/12/22 17:30:32;;;;;;;33.88;21.33;;;;;;;1.67;82.64;102539.88;1919689;74;21011;-81
2020/12/22 17:33:00;;;;;;;39.13;21.85;;;;;;;1.66;82.73;102533.07;1920072;74;22075;-81
2020/12/22 17:35:28;;;;;;;37.00;21.57;;;;;;;1.63;82.64;102530.05;1919696;74;21644;-81
2020/12/22 17:37:56;;;;;;;37.85;21.82;;;;;;;1.64;82.93;102532.20;1919880;74;21029;-82
2020/12/22 17:40:23;;;;;;;35.80;21.70;;;;;;;1.71;83.14;102526.23;1919689;74;20948;-82
2020/12/22 17:42:51;;;;;;;39.15;22.27;;;;;;;1.79;83.04;102525.79;1919857;74;20977;-81
2020/12/22 17:45:20;;;;;;;42.90;23.75;;;;;;;1.83;82.88;102523.24;1919827;74;21172;-82
2020/12/22 17:47:48;;;;;;;37.53;21.65;;;;;;;1.87;82.79;102516.00;1919438;74;20968;-82
2020/12/22 17:50:16;;;;;;;41.28;22.58;;;;;;;1.86;82.58;102519.83;1920008;74;20976;-81
2020/12/22 17:52:43;;;;;;;37.25;22.80;;;;;;;1.81;82.18;102517.28;1919587;74;21471;-81
2020/12/22 17:55:12;;;;;;;41.37;23.07;;;;;;;1.80;82.43;102516.84;1920135;74;20953;-83
2020/12/22 17:57:42;;;;;;;43.10;22.80;;;;;;;1.76;82.41;102517.70;1920048;74;21167;-81
2020/12/22 18:00:11;;;;;;;37.33;23.30;;;;;;;1.74;82.54;102519.41;1919738;74;20988;-82
2020/12/22 18:02:39;;;;;;;39.13;23.27;;;;;;;1.79;82.74;102525.79;1920447;74;20997;-82
2020/12/22 18:05:07;;;;;;;37.60;22.13;;;;;;;1.83;82.68;102522.39;1920164;74;21008;-81
2020/12/22 18:07:36;;;;;;;44.85;25.00;;;;;;;1.86;82.65;102516.84;1920549;74;21008;-80
2020/12/22 18:10:05;;;;;;;38.05;24.23;;;;;;;1.90;82.57;102515.99;1920587;74;21905;-82
2020/12/22 18:12:33;;;;;;;37.25;23.60;;;;;;;1.92;82.48;102513.41;1921115;74;20917;-83
2020/12/22 18:15:01;;;;;;;40.73;25.30;;;;;;;1.92;82.26;102509.16;1920266;74;20964;-81
2020/12/22 18:17:29;;;;;;;43.17;26.48;;;;;;;1.93;82.33;102505.75;1919778;74;20957;-82
2020/12/22 18:19:58;;;;;;;42.25;25.72;;;;;;;1.91;82.29;102499.80;1919659;74;20957;-81
2020/12/22 18:22:26;;;;;;;43.20;25.50;;;;;;;1.91;82.30;102495.09;1919821;74;22073;-81
2020/12/22 18:24:55;;;;;;;42.67;26.62;;;;;;;1.92;82.48;102486.53;1919803;74;21570;-81
2020/12/22 18:27:25;;;;;;;48.28;26.00;;;;;;;1.94;82.47;102481.86;1919877;74;21428;-81
2020/12/22 18:29:53;;;;;;;45.73;26.97;;;;;;;1.94;82.31;102483.56;1919687;74;21004;-82
2020/12/22 18:32:21;;;;;;;44.75;26.73;;;;;;;1.92;82.37;102483.55;1919892;74;20964;-82
2020/12/22 18:34:49;;;;;;;44.98;26.37;;;;;;;1.89;82.40;102478.44;1919911;74;21413;-81
2020/12/22 18:37:18;;;;;;;39.23;24.27;;;;;;;1.85;82.52;102483.13;1919796;74;20960;-81
2020/12/22 18:39:46;;;;;;;35.63;22.77;;;;;;;1.87;82.62;102479.30;1920005;74;20924;-81
2020/12/22 18:42:14;;;;;;;38.95;23.77;;;;;;;1.91;82.78;102475.47;1919591;74;21353;-81